Time;durP1;ratioP1;P1;durP2;ratioP2;P2;SDS_P1;SDS_P2;PMS_P1;PMS_P2;Temp;Humidity;BMP_temperature;BMP_pressure;BME280_temperature;BME280_humidity;BME280_pressure;Samples;Min_cycle;Max_cycle;Signal;HPM_P1;HPM_P2
2023/07/07 00:01:14;;;;;;;3.80;2.45;;;;;;;18.42;47.29;96946.97;4958843;28;20047;-83
2023/07/07 00:03:42;;;;;;;4.45;2.75;;;;;;;18.41;47.56;96947.19;4959750;29;20051;-83
2023/07/07 00:06:10;;;;;;;4.25;2.25;;;;;;;18.41;47.81;96948.00;4959483;29;20510;-83
2023/07/07 00:08:38;;;;;;;3.58;2.38;;;;;;;18.36;46.83;96950.50;4963345;29;20071;-82
2023/07/07 00:11:05;;;;;;;4.20;2.72;;;;;;;18.30;47.53;96948.72;4960963;28;20063;-82
2023/07/07 00:13:34;;;;;;;2.55;2.15;;;;;;;18.28;48.07;96953.47;4959965;29;20043;-82
2023/07/07 00:16:03;;;;;;;2.50;2.17;;;;;;;18.26;49.31;96958.16;4959918;29;20051;-82
2023/07/07 00:18:31;;;;;;;4.45;2.55;;;;;;;18.26;49.42;96950.22;4959231;29;20050;-83
2023/07/07 00:21:00;;;;;;;3.22;2.25;;;;;;;18.26;48.98;96955.50;4958328;28;20062;-82
2023/07/07 00:23:29;;;;;;;3.22;2.30;;;;;;;18.23;48.65;96954.09;4958858;29;20058;-83
2023/07/07 00:26:02;;;;;;;3.20;2.20;;;;;;;18.22;49.55;96957.78;4958828;29;20047;-82
2023/07/07 00:28:30;;;;;;;3.35;2.38;;;;;;;18.23;48.96;96955.94;4959012;29;20562;-82
2023/07/07 00:30:59;;;;;;;4.70;2.78;;;;;;;18.20;49.37;96951.91;4958592;28;20051;-82
2023/07/07 00:33:28;;;;;;;3.75;2.40;;;;;;;18.19;49.03;96952.13;4959497;29;20059;-82
2023/07/07 00:35:56;;;;;;;2.47;2.28;;;;;;;18.17;49.42;96954.19;4958074;29;20055;-83
2023/07/07 00:38:24;;;;;;;4.13;2.95;;;;;;;18.10;50.33;96951.63;4958629;29;20071;-82
2023/07/07 00:40:52;;;;;;;3.78;2.67;;;;;;;18.03;50.25;96951.69;4957895;28;20055;-82
2023/07/07 00:43:21;;;;;;;5.57;2.90;;;;;;;17.95;50.63;96959.09;4957350;29;20054;-82
2023/07/07 00:45:49;;;;;;;3.80;3.40;;;;;;;17.92;51.96;96944.50;4957556;29;20051;-82
2023/07/07 00:48:21;;;;;;;5.10;3.42;;;;;;;17.91;52.29;96964.03;4957469;29;20055;-82
2023/07/07 00:50:52;;;;;;;5.75;4.18;;;;;;;17.85;50.92;96962.25;4956964;28;20075;-82
2023/07/07 00:53:21;;;;;;;6.18;3.75;;;;;;;17.73;50.30;96964.75;4956963;29;20051;-81
2023/07/07 00:55:53;;;;;;;5.43;3.38;;;;;;;17.67;52.40;96969.09;4956053;29;20106;-82
2023/07/07 00:58:23;;;;;;;5.47;3.67;;;;;;;17.66;52.69;96967.47;4956514;28;20055;-82
2023/07/07 01:00:57;;;;;;;5.88;4.05;;;;;;;17.66;53.26;96964.81;4959151;28;20578;-82
2023/07/07 01:03:32;;;;;;;6.55;3.75;;;;;;;17.65;53.33;96968.50;4959356;29;20063;-81
2023/07/07 01:06:02;;;;;;;4.10;3.50;;;;;;;17.61;53.58;96964.69;4958521;29;20061;-82
2023/07/07 01:08:30;;;;;;;6.85;3.33;;;;;;;17.56;52.42;96964.53;4957910;29;20065;-81
2023/07/07 01:10:58;;;;;;;3.10;2.60;;;;;;;17.41;51.26;96958.78;4957443;28;20073;-82
2023/07/07 01:13:27;;;;;;;4.75;2.42;;;;;;;17.24;51.36;96969.84;4957714;29;20051;-82
2023/07/07 01:16:06;;;;;;;4.13;2.63;;;;;;;17.06;51.51;96972.44;4957858;29;20058;-81
2023/07/07 01:18:41;;;;;;;4.25;2.75;;;;;;;16.88;51.96;96967.91;4957734;29;20061;-81
2023/07/07 01:21:16;;;;;;;4.07;3.00;;;;;;;16.76;53.00;96973.00;4957914;28;20055;-82
2023/07/07 01:24:19;;;;;;;5.47;4.07;;;;;;;16.73;53.56;96978.69;4961683;29;20078;-82
2023/07/07 01:27:00;;;;;;;6.38;3.55;;;;;;;16.66;52.82;96976.09;4975040;29;20051;-81
2023/07/07 01:29:55;;;;;;;4.77;3.03;;;;;;;16.57;53.25;96971.28;4976054;28;20467;-82
2023/07/07 01:32:28;;;;;;;4.35;3.08;;;;;;;16.55;53.95;96970.66;4959614;29;20047;-82
2023/07/07 01:34:58;;;;;;;3.85;2.90;;;;;;;16.55;52.11;96970.66;4963281;29;20051;-82
2023/07/07 01:37:26;;;;;;;4.05;3.10;;;;;;;16.55;51.68;96968.03;4966800;29;20115;-83
2023/07/07 01:39:55;;;;;;;3.95;2.67;;;;;;;16.51;50.88;96966.84;4965182;28;20051;-82
2023/07/07 01:42:28;;;;;;;4.18;2.72;;;;;;;16.44;50.86;96970.34;4969063;29;20051;-82
2023/07/07 01:45:04;;;;;;;3.35;2.65;;;;;;;16.36;50.77;96970.56;4974651;29;20118;-82
2023/07/07 01:47:36;;;;;;;3.30;2.42;;;;;;;16.31;51.00;96965.13;4974964;29;20438;-83
2023/07/07 01:50:08;;;;;;;7.40;2.83;;;;;;;16.29;51.12;96972.44;4977452;28;20082;-82
2023/07/07 01:52:40;;;;;;;4.65;2.90;;;;;;;16.26;51.13;96967.56;4979452;28;20526;-83
2023/07/07 01:55:15;;;;;;;4.90;2.95;;;;;;;16.32;53.38;96960.66;4978361;28;20124;-82
2023/07/07 01:57:46;;;;;;;4.47;2.17;;;;;;;16.33;51.22;96968.34;4979890;28;20047;-82
2023/07/07 02:00:16;;;;;;;3.20;2.35;;;;;;;16.32;51.17;96972.00;4979252;28;20043;-82
2023/07/07 02:02:45;;;;;;;4.20;2.65;;;;;;;16.31;51.11;96973.03;4979061;28;20388;-82
2023/07/07 02:05:14;;;;;;;3.80;2.40;;;;;;;16.27;51.13;96975.25;4979846;28;20039;-82
2023/07/07 02:07:42;;;;;;;4.78;2.80;;;;;;;16.28;51.22;96970.78;4978246;28;20051;-81
2023/07/07 02:10:10;;;;;;;5.32;3.22;;;;;;;16.28;51.11;96966.34;4978380;28;20047;-82
2023/07/07 02:12:38;;;;;;;5.97;2.95;;;;;;;16.27;51.05;96974.47;4978448;28;20047;-81
2023/07/07 02:15:07;;;;;;;3.97;2.72;;;;;;;16.24;50.71;96969.59;4980324;28;20043;-81
2023/07/07 02:17:35;;;;;;;5.85;2.80;;;;;;;16.21;51.00;96970.03;4980090;28;20051;-82
2023/07/07 02:20:05;;;;;;;2.53;2.10;;;;;;;16.17;51.13;96968.81;4980182;28;20065;-81
2023/07/07 02:22:33;;;;;;;2.80;2.30;;;;;;;16.10;51.09;96962.78;4980613;28;20055;-81
2023/07/07 02:25:00;;;;;;;3.80;2.40;;;;;;;16.02;51.11;96966.44;4981202;28;20043;-80
2023/07/07 02:27:28;;;;;;;4.97;2.83;;;;;;;15.94;51.37;96964.84;4981339;28;20034;-79
2023/07/07 02:29:56;;;;;;;6.40;2.67;;;;;;;15.84;51.54;96957.38;4980741;28;20031;-81
2023/07/07 02:32:25;;;;;;;3.35;2.45;;;;;;;15.78;51.83;96960.00;4981041;28;20074;-79
2023/07/07 02:34:55;;;;;;;3.63;2.80;;;;;;;15.72;51.95;96958.19;4980930;28;20042;-80
2023/07/07 02:37:24;;;;;;;3.40;2.97;;;;;;;15.66;52.39;96957.19;4981149;28;20031;-80
2023/07/07 02:39:52;;;;;;;4.22;3.30;;;;;;;15.63;52.73;96954.94;4980617;28;20059;-80
2023/07/07 02:42:19;;;;;;;5.55;3.10;;;;;;;15.59;52.95;96945.84;4980862;28;20050;-80
2023/07/07 02:44:47;;;;;;;5.18;3.03;;;;;;;15.58;53.16;96947.69;4980739;28;20043;-80
2023/07/07 02:47:15;;;;;;;5.38;3.13;;;;;;;15.59;53.01;96946.69;4980786;28;20063;-79
2023/07/07 02:49:42;;;;;;;5.43;3.00;;;;;;;15.61;52.95;96952.53;4980503;28;20095;-80
2023/07/07 02:52:11;;;;;;;6.38;3.53;;;;;;;15.59;52.94;96956.38;4980725;28;20050;-80
2023/07/07 02:54:40;;;;;;;3.30;2.78;;;;;;;15.54;53.08;96954.34;4980760;28;20035;-80
2023/07/07 02:57:07;;;;;;;3.72;2.85;;;;;;;15.56;55.29;96959.41;4980701;28;20043;-80
2023/07/07 02:59:35;;;;;;;3.67;3.20;;;;;;;15.64;55.13;96952.13;4980042;28;20031;-80
2023/07/07 03:02:04;;;;;;;6.53;3.97;;;;;;;15.79;55.29;96951.13;4980541;28;20046;-80
2023/07/07 03:04:32;;;;;;;6.15;4.10;;;;;;;15.90;55.73;96955.75;4980512;28;20063;-80
2023/07/07 03:06:59;;;;;;;5.10;3.95;;;;;;;16.00;56.33;96956.09;4980403;28;20146;-80
2023/07/07 03:09:27;;;;;;;6.95;3.88;;;;;;;16.11;55.72;96959.91;4980164;28;20039;-81
2023/07/07 03:11:56;;;;;;;5.63;3.85;;;;;;;16.23;56.11;96960.09;4980356;28;20051;-80
2023/07/07 03:14:24;;;;;;;8.15;4.40;;;;;;;16.25;56.69;96960.69;4980215;28;20039;-79
2023/07/07 03:16:52;;;;;;;5.80;4.50;;;;;;;16.22;55.57;96961.09;4980271;28;20035;-79
2023/07/07 03:19:20;;;;;;;4.82;3.50;;;;;;;16.20;57.05;96963.13;4980017;28;20059;-80
2023/07/07 03:21:48;;;;;;;4.35;3.70;;;;;;;16.22;57.98;96963.72;4979421;28;20035;-80
2023/07/07 03:24:16;;;;;;;5.90;3.78;;;;;;;16.27;57.53;96969.19;4980214;28;20058;-80
2023/07/07 03:26:44;;;;;;;7.93;4.30;;;;;;;16.28;55.85;96965.53;4980299;28;20058;-80
2023/07/07 03:29:13;;;;;;;6.50;4.20;;;;;;;16.21;56.00;96970.03;4979977;28;20075;-80
2023/07/07 03:31:41;;;;;;;8.98;4.07;;;;;;;16.16;57.11;96977.72;4980058;28;20063;-80
2023/07/07 03:34:08;;;;;;;5.97;4.10;;;;;;;16.13;56.89;96972.88;4980062;28;20031;-80
2023/07/07 03:36:37;;;;;;;6.32;4.25;;;;;;;16.13;56.47;96981.56;4980058;28;20062;-80
2023/07/07 03:39:05;;;;;;;6.85;3.83;;;;;;;16.08;55.86;96977.97;4980068;28;20035;-80
2023/07/07 03:41:32;;;;;;;8.02;4.68;;;;;;;15.98;55.61;96981.84;4979723;28;20039;-80
2023/07/07 03:44:00;;;;;;;3.67;3.20;;;;;;;15.86;55.83;96978.22;4979957;28;20053;-80
2023/07/07 03:46:30;;;;;;;4.90;3.45;;;;;;;15.86;57.63;96975.59;4979847;28;20035;-80
2023/07/07 03:48:59;;;;;;;5.53;3.88;;;;;;;15.92;58.08;96982.66;4979904;28;20063;-80
2023/07/07 03:51:28;;;;;;;5.18;3.92;;;;;;;15.96;57.71;96978.59;4979748;28;20039;-81
2023/07/07 03:53:56;;;;;;;7.90;4.10;;;;;;;15.98;57.60;96989.72;4979783;28;20062;-79
2023/07/07 03:56:26;;;;;;;6.50;3.45;;;;;;;16.01;57.67;96989.31;4979756;28;20039;-79
2023/07/07 03:58:54;;;;;;;5.75;3.97;;;;;;;16.02;56.91;96995.38;4979678;28;20058;-80
2023/07/07 04:01:21;;;;;;;5.85;4.00;;;;;;;15.99;57.67;96988.72;4979459;28;20343;-78
2023/07/07 04:03:50;;;;;;;6.80;3.75;;;;;;;16.01;58.40;96991.94;4979696;28;20058;-80
2023/07/07 04:06:19;;;;;;;6.72;4.07;;;;;;;16.03;57.57;96991.75;4979428;28;20051;-80
2023/07/07 04:08:47;;;;;;;7.20;3.58;;;;;;;16.08;58.17;96993.75;4979741;28;20062;-80
2023/07/07 04:11:17;;;;;;;4.47;3.97;;;;;;;16.09;57.91;97003.25;4979361;28;20058;-80
2023/07/07 04:13:47;;;;;;;5.65;3.60;;;;;;;16.10;57.31;96997.00;4979371;28;20083;-79
2023/07/07 04:16:19;;;;;;;4.43;3.47;;;;;;;16.14;57.37;96996.38;4979520;28;20054;-80
2023/07/07 04:18:47;;;;;;;5.93;4.07;;;;;;;16.18;56.87;97009.91;4979563;28;20070;-78
2023/07/07 04:21:20;;;;;;;5.05;3.50;;;;;;;16.20;57.01;97010.50;4979047;28;20031;-79
2023/07/07 04:23:49;;;;;;;;;;;;;;;16.18;57.58;97009.91;4979824;28;20084;-79
2023/07/07 04:26:17;;;;;;;5.28;3.65;;;;;;;16.17;56.84;97009.09;4979141;28;19979;-79
2023/07/07 04:28:45;;;;;;;4.65;3.40;;;;;;;16.19;56.99;97019.44;4979227;28;20054;-78
2023/07/07 04:31:14;;;;;;;5.53;3.97;;;;;;;16.20;57.27;97018.41;4978952;28;20067;-80
2023/07/07 04:33:42;;;;;;;5.47;3.25;;;;;;;16.21;57.22;97017.41;4982531;28;20102;-80
2023/07/07 04:36:12;;;;;;;5.32;3.60;;;;;;;16.21;56.72;97017.41;4983239;28;20055;-80
2023/07/07 04:38:42;;;;;;;6.45;4.32;;;;;;;16.21;57.85;97022.66;4983342;28;20043;-79
2023/07/07 04:41:12;;;;;;;5.72;4.35;;;;;;;16.21;57.80;97020.84;4981392;28;20106;-79
2023/07/07 04:43:43;;;;;;;4.32;3.55;;;;;;;16.20;57.86;97021.03;4959897;29;20066;-78
2023/07/07 04:46:12;;;;;;;5.60;4.00;;;;;;;16.21;57.33;97020.03;4959044;29;20082;-78
2023/07/07 04:48:40;;;;;;;4.20;3.60;;;;;;;16.27;56.89;97024.47;4961270;29;20055;-79
2023/07/07 04:51:10;;;;;;;5.55;4.32;;;;;;;16.30;56.63;97025.88;4968738;28;20110;-78
2023/07/07 04:53:40;;;;;;;8.00;4.22;;;;;;;16.30;56.54;97024.03;4958378;29;20087;-78
2023/07/07 04:56:11;;;;;;;7.25;4.68;;;;;;;16.32;57.15;97023.84;4958513;29;20053;-78
2023/07/07 04:58:40;;;;;;;9.10;4.78;;;;;;;16.29;56.33;97030.34;4957654;29;20055;-77
2023/07/07 05:01:09;;;;;;;25.60;16.15;;;;;;;16.27;57.17;97033.16;4957257;28;20135;-77
2023/07/07 05:03:41;;;;;;;8.10;5.78;;;;;;;16.33;56.93;97026.25;4958843;29;20075;-78
2023/07/07 05:06:10;;;;;;;5.82;4.25;;;;;;;16.35;56.65;97032.13;4963111;29;20047;-80
2023/07/07 05:08:40;;;;;;;8.63;4.40;;;;;;;16.37;56.48;97031.91;4973156;29;20070;-81
2023/07/07 05:11:12;;;;;;;5.97;4.30;;;;;;;16.41;55.96;97030.50;4970732;28;20099;-80
2023/07/07 05:13:40;;;;;;;6.10;4.22;;;;;;;16.42;56.49;97035.56;4972622;29;20094;-81
2023/07/07 05:16:10;;;;;;;5.60;4.45;;;;;;;16.42;56.73;97035.56;4973632;29;20067;-80
2023/07/07 05:18:38;;;;;;;5.70;4.78;;;;;;;16.41;55.80;97036.56;4971538;29;20051;-80
2023/07/07 05:21:08;;;;;;;8.45;4.00;;;;;;;16.41;54.88;97033.94;4966668;28;20049;-84
2023/07/07 05:23:37;;;;;;;9.60;4.90;;;;;;;16.43;55.11;97031.91;4976518;28;20061;-78
2023/07/07 05:26:06;;;;;;;10.77;3.83;;;;;;;16.51;54.32;97037.94;4973508;28;20035;-85
2023/07/07 05:28:37;;;;;;;6.68;4.00;;;;;;;16.61;53.91;97040.94;4978191;28;20071;-82
2023/07/07 05:31:07;;;;;;;9.38;4.18;;;;;;;16.71;53.65;97037.88;4975416;28;20039;-81
2023/07/07 05:33:35;;;;;;;8.13;3.72;;;;;;;16.81;53.49;97033.78;4972199;28;20109;-81
2023/07/07 05:36:04;;;;;;;5.53;3.60;;;;;;;16.93;53.31;97030.50;4960404;29;20052;-82
2023/07/07 05:38:32;;;;;;;5.97;3.95;;;;;;;17.05;53.16;97034.06;4966065;29;20035;-81
2023/07/07 05:41:00;;;;;;;8.52;4.15;;;;;;;17.18;52.96;97033.19;4963792;29;20055;-84
2023/07/07 05:43:28;;;;;;;7.95;4.07;;;;;;;17.30;52.68;97036.75;4959589;28;20512;-84
2023/07/07 05:45:59;;;;;;;8.95;3.97;;;;;;;17.42;52.40;97044.78;4958490;29;20055;-83
2023/07/07 05:48:28;;;;;;;5.60;3.88;;;;;;;17.53;52.45;97045.91;4958029;29;20059;-84
2023/07/07 05:50:58;;;;;;;5.05;3.95;;;;;;;17.65;52.54;97042.38;4959245;28;20371;-83
2023/07/07 05:53:27;;;;;;;6.85;3.65;;;;;;;17.75;52.37;97038.44;4959097;29;20087;-85
2023/07/07 05:56:03;;;;;;;7.95;4.53;;;;;;;17.88;52.42;97040.97;4971975;29;20051;-85
2023/07/07 05:58:31;;;;;;;7.82;4.22;;;;;;;18.01;52.38;97046.13;4973993;29;20043;-84
2023/07/07 06:01:01;;;;;;;5.15;3.38;;;;;;;18.10;52.19;97031.63;4959521;29;20110;-79
2023/07/07 06:03:29;;;;;;;5.65;4.25;;;;;;;18.20;52.36;97030.31;4956145;29;20067;-79
2023/07/07 06:05:56;;;;;;;5.45;4.22;;;;;;;18.31;52.14;97040.16;4956162;29;20054;-77
2023/07/07 06:08:24;;;;;;;5.22;3.80;;;;;;;18.41;52.20;97037.81;4956140;29;20051;-78
2023/07/07 06:10:52;;;;;;;8.68;4.35;;;;;;;18.51;52.30;97034.63;4955486;29;20134;-79
2023/07/07 06:13:23;;;;;;;6.25;3.80;;;;;;;18.60;52.31;97035.94;4955387;29;20450;-79
2023/07/07 06:15:52;;;;;;;6.22;4.15;;;;;;;18.69;52.09;97039.09;4955833;29;20075;-79
2023/07/07 06:18:22;;;;;;;5.53;4.03;;;;;;;18.80;52.06;97042.84;4955611;29;20495;-78
2023/07/07 06:20:51;;;;;;;4.85;4.05;;;;;;;18.89;52.11;97050.25;4955272;29;20114;-79
2023/07/07 06:23:19;;;;;;;5.78;4.03;;;;;;;18.98;52.10;97048.13;4955541;29;20047;-79
2023/07/07 06:25:47;;;;;;;5.18;3.60;;;;;;;19.07;52.03;97045.97;4955443;29;20074;-79
2023/07/07 06:28:15;;;;;;;4.30;3.55;;;;;;;19.13;51.97;97050.31;4955181;29;20066;-78
2023/07/07 06:30:44;;;;;;;7.45;3.75;;;;;;;19.21;52.21;97047.38;4954621;28;20353;-78
2023/07/07 06:33:11;;;;;;;7.25;4.32;;;;;;;19.30;52.41;97053.94;4955480;29;20431;-78
2023/07/07 06:35:40;;;;;;;5.78;3.90;;;;;;;19.39;52.16;97053.63;4955502;29;20055;-77
2023/07/07 06:38:08;;;;;;;7.35;4.28;;;;;;;19.47;52.15;97051.47;4954999;29;20534;-78
2023/07/07 06:40:36;;;;;;;8.07;4.35;;;;;;;19.55;52.12;97058.28;4954851;28;20114;-78
2023/07/07 06:43:03;;;;;;;7.78;4.53;;;;;;;19.63;52.11;97060.56;4955195;29;20050;-78
2023/07/07 06:45:34;;;;;;;4.97;3.78;;;;;;;19.70;52.05;97061.31;4955105;29;20051;-79
2023/07/07 06:48:02;;;;;;;6.07;4.30;;;;;;;19.79;52.01;97058.31;4954939;29;20055;-78
2023/07/07 06:50:31;;;;;;;7.15;4.20;;;;;;;19.88;51.66;97063.06;4954658;28;20047;-79
2023/07/07 06:53:00;;;;;;;6.75;4.60;;;;;;;19.97;51.62;97066.16;4954717;29;20073;-78
2023/07/07 06:55:28;;;;;;;6.10;4.15;;;;;;;20.05;51.65;97065.00;4954373;28;20479;-79
2023/07/07 06:57:55;;;;;;;6.85;4.50;;;;;;;20.14;51.58;97072.38;4954790;29;20083;-78
2023/07/07 07:00:23;;;;;;;8.38;4.65;;;;;;;20.24;51.49;97074.44;4954634;28;20086;-79
2023/07/07 07:02:51;;;;;;;5.10;3.83;;;;;;;20.34;51.46;97071.22;4954806;29;20423;-78
2023/07/07 07:05:19;;;;;;;5.32;4.32;;;;;;;20.45;51.43;97074.88;4954910;29;20078;-77
2023/07/07 07:07:47;;;;;;;6.32;4.60;;;;;;;20.55;51.08;97078.56;4954766;29;20134;-78
2023/07/07 07:10:17;;;;;;;5.97;4.78;;;;;;;20.68;50.69;97079.34;4954407;28;20066;-78
2023/07/07 07:12:44;;;;;;;6.20;4.35;;;;;;;20.81;50.47;97068.47;4954832;29;20059;-79
2023/07/07 07:15:12;;;;;;;5.53;4.28;;;;;;;20.92;50.10;97074.78;4954771;29;20051;-78
2023/07/07 07:17:39;;;;;;;7.10;4.78;;;;;;;20.99;50.14;97068.31;4954794;29;20574;-79
2023/07/07 07:20:10;;;;;;;5.13;3.97;;;;;;;21.06;49.74;97064.72;4954336;29;20590;-78
2023/07/07 07:22:38;;;;;;;5.90;4.38;;;;;;;21.14;49.83;97069.63;4955034;29;20051;-78
2023/07/07 07:25:08;;;;;;;5.68;4.07;;;;;;;21.22;49.49;97071.91;4972814;29;20069;-84
2023/07/07 07:27:39;;;;;;;5.38;4.40;;;;;;;21.31;49.22;97069.66;4975698;29;20063;-85
2023/07/07 07:30:11;;;;;;;6.60;3.80;;;;;;;21.43;48.78;97077.59;4969502;28;20055;-84
2023/07/07 07:32:39;;;;;;;4.82;3.75;;;;;;;21.56;48.17;97069.34;4967232;29;20078;-83
2023/07/07 07:35:07;;;;;;;7.40;4.82;;;;;;;21.71;47.51;97072.25;4967513;29;20055;-83
2023/07/07 07:37:36;;;;;;;6.18;4.55;;;;;;;21.81;47.06;97067.06;4966760;29;20047;-83
2023/07/07 07:40:05;;;;;;;5.85;3.88;;;;;;;21.94;47.22;97073.13;4967500;28;20140;-84
2023/07/07 07:42:33;;;;;;;5.57;4.05;;;;;;;22.08;46.69;97074.38;4965595;29;20550;-84
2023/07/07 07:45:02;;;;;;;6.07;3.88;;;;;;;22.21;45.78;97074.06;4966877;29;20345;-84
2023/07/07 07:47:34;;;;;;;5.18;3.70;;;;;;;22.31;45.42;97069.97;4956727;29;20070;-84
2023/07/07 07:50:04;;;;;;;6.68;3.70;;;;;;;22.38;46.15;97068.72;4958229;29;20066;-84
2023/07/07 07:52:33;;;;;;;7.07;4.32;;;;;;;22.48;44.95;97084.00;4960583;29;20455;-86
2023/07/07 07:55:14;;;;;;;5.25;3.70;;;;;;;22.59;44.79;97075.09;4960370;29;20082;-84
2023/07/07 07:57:54;;;;;;;6.88;4.03;;;;;;;22.67;44.65;97073.06;4959379;29;20051;-85
2023/07/07 08:00:29;;;;;;;8.05;3.80;;;;;;;22.79;43.92;97073.75;4958470;29;20059;-85
2023/07/07 08:03:08;;;;;;;6.75;3.80;;;;;;;22.90;43.32;97070.16;4957292;29;20083;-84
2023/07/07 08:05:36;;;;;;;7.82;5.22;;;;;;;23.03;43.19;97080.44;4958012;29;20130;-84
2023/07/07 08:08:05;;;;;;;5.13;4.22;;;;;;;23.17;42.63;97075.50;4957415;28;20110;-85
2023/07/07 08:10:34;;;;;;;5.20;3.80;;;;;;;23.26;41.32;97067.88;4957923;29;20059;-85
2023/07/07 08:13:04;;;;;;;6.18;4.35;;;;;;;23.35;41.52;97081.53;4957520;29;20134;-85
2023/07/07 08:15:36;;;;;;;5.82;4.05;;;;;;;23.43;41.27;97075.75;4958534;29;20059;-84
2023/07/07 08:43:20;;;;;;;5.38;3.97;;;;;;;24.22;38.24;97100.91;6341569;22;20030;-82
2023/07/07 08:45:59;;;;;;;5.97;3.60;;;;;;;24.29;38.22;97106.00;6335510;22;20015;-80
2023/07/07 08:48:41;;;;;;;7.15;4.20;;;;;;;24.34;38.00;97103.41;6325550;22;20400;-80
2023/07/07 08:51:17;;;;;;;7.28;4.28;;;;;;;24.42;38.09;97108.22;6329915;22;20071;-80
2023/07/07 08:53:55;;;;;;;5.45;4.50;;;;;;;24.51;37.11;97108.56;6331186;22;20019;-79
2023/07/07 08:56:34;;;;;;;7.88;4.50;;;;;;;24.56;37.33;97105.94;6322253;22;20098;-79
2023/07/07 08:59:15;;;;;;;6.15;3.80;;;;;;;24.61;37.38;97113.97;6316047;22;20069;-82
2023/07/07 09:01:54;;;;;;;9.30;4.53;;;;;;;24.65;36.34;97105.19;6316569;22;20025;-80
2023/07/07 09:04:32;;;;;;;6.93;3.92;;;;;;;24.73;36.57;97100.41;6315476;22;20406;-80
2023/07/07 09:07:19;;;;;;;6.40;4.60;;;;;;;24.79;35.89;97091.38;6318233;22;20375;-80
2023/07/07 09:10:02;;;;;;;5.78;4.63;;;;;;;24.86;36.51;97100.75;6315485;22;20015;-80
2023/07/07 09:12:38;;;;;;;6.07;4.05;;;;;;;24.94;36.79;97102.09;6315617;22;20023;-80
2023/07/07 09:15:13;;;;;;;6.25;4.40;;;;;;;25.00;35.47;97101.06;6316329;22;20023;-80
2023/07/07 09:17:45;;;;;;;5.80;4.13;;;;;;;25.07;35.54;97093.59;6316356;22;20015;-80
2023/07/07 09:20:16;;;;;;;9.20;5.95;;;;;;;25.14;35.10;97095.22;6317147;22;20026;-80
2023/07/07 09:22:48;;;;;;;6.18;4.45;;;;;;;25.20;35.30;97096.88;6320830;22;20011;-81
2023/07/07 09:25:20;;;;;;;5.63;4.22;;;;;;;25.27;35.12;97094.75;6319131;22;20019;-80
2023/07/07 09:27:58;;;;;;;6.80;4.30;;;;;;;25.31;35.01;97095.81;6316946;22;20098;-81
2023/07/07 09:30:31;;;;;;;5.53;4.40;;;;;;;25.37;33.78;97101.97;6311005;22;20069;-81
2023/07/07 09:32:58;;;;;;;5.75;4.18;;;;;;;25.40;34.61;97096.09;6311827;22;20072;-81
2023/07/07 09:35:31;;;;;;;6.47;4.13;;;;;;;25.41;34.00;97090.50;6311656;22;20021;-81
2023/07/07 09:38:11;;;;;;;5.97;4.57;;;;;;;25.45;33.37;97094.25;6310040;22;20019;-81
2023/07/07 09:40:44;;;;;;;4.90;4.05;;;;;;;25.51;34.29;97088.91;6309309;22;20030;-81
2023/07/07 09:43:24;;;;;;;4.82;3.90;;;;;;;25.56;33.85;97097.75;6310003;22;20117;-83
2023/07/07 09:46:07;;;;;;;6.13;4.00;;;;;;;25.65;32.69;97095.34;6310830;22;20038;-81
2023/07/07 09:48:43;;;;;;;6.43;4.32;;;;;;;25.74;33.19;97084.94;6314005;22;20020;-81
2023/07/07 09:51:22;;;;;;;5.88;4.13;;;;;;;25.80;34.16;97087.34;6318422;22;20023;-85
2023/07/07 09:53:51;;;;;;;7.32;3.97;;;;;;;25.87;32.74;97081.72;6324058;22;20034;-84
2023/07/07 09:56:22;;;;;;;5.90;4.15;;;;;;;25.88;33.24;97092.16;6318712;22;20070;-84
2023/07/07 09:59:02;;;;;;;5.57;4.10;;;;;;;25.92;32.25;97083.59;6320299;22;20268;-84
2023/07/07 10:01:36;;;;;;;6.03;4.07;;;;;;;25.95;32.97;97083.84;6316112;22;20518;-84
2023/07/07 10:04:13;;;;;;;4.72;4.05;;;;;;;25.98;31.56;97078.00;6317074;22;20021;-85
2023/07/07 10:06:47;;;;;;;5.05;3.65;;;;;;;26.04;33.20;97076.91;6316835;22;20049;-85
2023/07/07 10:09:16;;;;;;;7.07;4.00;;;;;;;26.08;33.15;97077.94;6315661;22;20038;-77
2023/07/07 10:11:44;;;;;;;7.22;4.70;;;;;;;26.14;31.87;97076.09;6307243;22;20049;-77
2023/07/07 10:14:18;;;;;;;5.65;4.70;;;;;;;26.22;30.80;97085.44;6317462;22;20077;-75
2023/07/07 10:16:55;;;;;;;8.45;5.20;;;;;;;26.29;31.03;97078.72;6306883;22;20360;-76
2023/07/07 10:19:24;;;;;;;6.72;4.18;;;;;;;26.41;30.24;97081.09;6305989;22;20441;-76
2023/07/07 10:21:52;;;;;;;8.70;4.78;;;;;;;26.50;30.31;97075.97;6306892;22;20403;-76
2023/07/07 10:24:20;;;;;;;6.57;5.10;;;;;;;26.59;30.55;97087.78;6306815;22;20029;-76
2023/07/07 10:26:48;;;;;;;6.53;4.65;;;;;;;26.70;30.68;97078.63;6307072;22;20023;-76
2023/07/07 10:29:21;;;;;;;6.72;4.32;;;;;;;26.80;29.91;97074.31;6306452;22;20460;-76
2023/07/07 10:31:50;;;;;;;4.93;4.18;;;;;;;26.87;30.21;97085.50;6306488;22;20023;-76
2023/07/07 10:34:26;;;;;;;7.28;4.72;;;;;;;26.92;29.83;97074.81;6307050;22;20019;-77
2023/07/07 10:36:55;;;;;;;4.60;4.10;;;;;;;26.96;30.06;97075.84;6306783;22;20020;-77
2023/07/07 10:39:24;;;;;;;5.40;3.97;;;;;;;27.03;29.76;97060.28;6274991;22;20042;-77
2023/07/07 10:41:51;;;;;;;5.68;4.47;;;;;;;27.09;29.50;97061.84;6275485;22;20024;-78
2023/07/07 10:44:24;;;;;;;6.32;4.30;;;;;;;27.12;28.68;97068.53;6275601;22;20077;-78
2023/07/07 10:46:51;;;;;;;5.90;4.68;;;;;;;27.14;28.77;97071.72;6276023;22;20020;-80
2023/07/07 10:49:24;;;;;;;7.32;4.57;;;;;;;27.21;29.08;97071.44;6275544;22;20019;-79
2023/07/07 10:52:09;;;;;;;6.03;4.95;;;;;;;27.30;28.89;97080.50;6275400;22;20457;-78
2023/07/07 10:54:46;;;;;;;6.15;4.40;;;;;;;27.40;28.78;97058.19;6275836;22;20093;-79
2023/07/07 10:57:25;;;;;;;8.48;5.60;;;;;;;27.44;29.21;97065.41;6275867;22;20019;-78
2023/07/07 11:00:03;;;;;;;8.77;5.43;;;;;;;27.51;28.52;97065.09;6274857;22;20465;-78
2023/07/07 11:02:56;;;;;;;7.35;5.47;;;;;;;27.54;28.36;97062.63;6275422;22;20027;-81
2023/07/07 11:05:35;;;;;;;8.65;6.15;;;;;;;27.54;27.77;97059.97;6276398;22;20098;-80
2023/07/07 11:08:20;;;;;;;6.30;5.18;;;;;;;27.58;28.69;97056.72;6276031;22;20026;-80
2023/07/07 11:11:06;;;;;;;7.45;4.90;;;;;;;27.63;28.34;97054.00;6274791;22;20477;-79
2023/07/07 11:13:49;;;;;;;6.30;4.78;;;;;;;27.69;28.26;97050.22;6275518;22;20026;-79
2023/07/07 11:16:31;;;;;;;7.82;4.60;;;;;;;27.71;28.48;97056.09;6275800;22;20242;-79
2023/07/07 11:19:16;;;;;;;7.32;4.93;;;;;;;27.78;29.46;97053.88;6275808;22;20048;-80
2023/07/07 11:21:56;;;;;;;7.72;4.82;;;;;;;27.85;28.76;97043.66;6275401;22;20019;-80
2023/07/07 11:24:29;;;;;;;6.13;5.00;;;;;;;27.90;28.27;97045.47;6276487;22;20024;-80
2023/07/07 11:27:25;;;;;;;;;;;;;;;27.92;29.18;97038.78;6277504;22;20020;-80
2023/07/07 11:30:00;;;;;;;5.85;4.65;;;;;;;27.94;28.22;97047.34;6276016;22;20406;-80
2023/07/07 11:32:38;;;;;;;7.07;5.30;;;;;;;28.00;28.08;97049.97;6276829;22;20020;-80
2023/07/07 11:35:17;;;;;;;8.18;5.95;;;;;;;28.05;27.73;97041.84;6277601;22;20077;-81
2023/07/07 11:37:59;;;;;;;6.60;5.22;;;;;;;28.09;28.07;97045.56;6278725;22;20019;-81
2023/07/07 11:40:36;;;;;;;;;;;;;;;28.13;28.34;97039.34;6278500;22;20015;-81
2023/07/07 11:43:20;;;;;;;8.68;5.63;;;;;;;28.14;28.25;97049.00;6280014;22;19915;-82
2023/07/07 11:46:07;;;;;;;6.80;5.60;;;;;;;28.16;27.38;97048.72;6279067;22;20069;-81
2023/07/07 11:48:40;;;;;;;8.40;5.57;;;;;;;28.16;26.89;97048.72;6291702;22;20064;-81
2023/07/07 11:51:23;;;;;;;6.63;5.60;;;;;;;28.17;26.15;97044.16;6291127;22;20114;-84
2023/07/07 11:54:07;;;;;;;7.88;5.35;;;;;;;28.19;26.72;97045.47;6281421;22;20023;-81
2023/07/07 11:56:52;;;;;;;8.25;5.70;;;;;;;28.22;27.00;97047.56;6279426;22;20026;-81
2023/07/07 11:59:37;;;;;;;7.47;5.55;;;;;;;28.25;27.48;97046.19;6278791;22;20271;-82
2023/07/07 12:02:14;;;;;;;7.78;6.20;;;;;;;28.27;26.79;97052.09;6279656;22;20024;-82
2023/07/07 12:04:45;;;;;;;7.82;5.88;;;;;;;28.29;26.66;97047.22;6278094;22;20081;-81
2023/07/07 12:07:20;;;;;;;7.80;5.60;;;;;;;28.29;26.11;97037.28;6278026;22;20461;-81
2023/07/07 12:09:53;;;;;;;9.55;6.25;;;;;;;28.30;26.04;97038.91;6278141;22;20019;-81
2023/07/07 12:12:27;;;;;;;7.43;5.93;;;;;;;28.33;25.47;97043.69;6278093;22;20027;-81
2023/07/07 12:15:01;;;;;;;9.30;6.35;;;;;;;28.33;25.28;97035.66;6278021;22;20462;-80
2023/07/07 12:17:36;;;;;;;10.93;6.38;;;;;;;28.35;25.27;97030.00;6285564;22;20034;-81
2023/07/07 12:20:14;;;;;;;8.77;6.72;;;;;;;28.39;25.95;97036.41;6286756;22;20295;-82